sensor_id;sensor_type;location;lat;lon;timestamp;temperature;humidity
20349;DHT22;10332;50.208;18.988;2023-04-24T00:02:13;15.40;1.00
20349;DHT22;10332;50.208;18.988;2023-04-24T00:04:41;15.40;1.00
20349;DHT22;10332;50.208;18.988;2023-04-24T00:07:12;15.30;1.00
20349;DHT22;10332;50.208;18.988;2023-04-24T00:09:40;15.30;1.00
20349;DHT22;10332;50.208;18.988;2023-04-24T00:12:08;15.20;1.00
20349;DHT22;10332;50.208;18.988;2023-04-24T00:14:36;15.20;1.00
20349;DHT22;10332;50.208;18.988;2023-04-24T00:17:04;15.20;1.00
20349;DHT22;10332;50.208;18.988;2023-04-24T00:19:32;15.20;1.00
20349;DHT22;10332;50.208;18.988;2023-04-24T00:22:05;15.10;1.00
20349;DHT22;10332;50.208;18.988;2023-04-24T00:24:33;15.20;1.00
20349;DHT22;10332;50.208;18.988;2023-04-24T00:27:00;15.10;1.00
20349;DHT22;10332;50.208;18.988;2023-04-24T00:29:29;15.10;1.00
20349;DHT22;10332;50.208;18.988;2023-04-24T00:31:56;15.10;1.00
20349;DHT22;10332;50.208;18.988;2023-04-24T00:34:24;15.10;1.00
20349;DHT22;10332;50.208;18.988;2023-04-24T00:36:52;15.10;1.00
20349;DHT22;10332;50.208;18.988;2023-04-24T00:39:19;15.10;1.00
20349;DHT22;10332;50.208;18.988;2023-04-24T00:41:47;15.00;1.00
20349;DHT22;10332;50.208;18.988;2023-04-24T00:44:15;15.00;1.00
20349;DHT22;10332;50.208;18.988;2023-04-24T00:46:42;14.90;1.00
20349;DHT22;10332;50.208;18.988;2023-04-24T00:49:10;14.90;1.00
20349;DHT22;10332;50.208;18.988;2023-04-24T00:51:39;14.90;1.00
20349;DHT22;10332;50.208;18.988;2023-04-24T00:54:07;14.90;1.00
20349;DHT22;10332;50.208;18.988;2023-04-24T00:56:35;14.80;1.00
20349;DHT22;10332;50.208;18.988;2023-04-24T00:59:03;14.80;1.00
20349;DHT22;10332;50.208;18.988;2023-04-24T01:01:31;14.80;1.00
20349;DHT22;10332;50.208;18.988;2023-04-24T01:03:59;14.80;1.00
20349;DHT22;10332;50.208;18.988;2023-04-24T01:06:29;14.80;1.00
20349;DHT22;10332;50.208;18.988;2023-04-24T01:08:58;14.70;1.00
20349;DHT22;10332;50.208;18.988;2023-04-24T01:11:27;14.70;1.00
20349;DHT22;10332;50.208;18.988;2023-04-24T01:13:56;14.70;1.00
20349;DHT22;10332;50.208;18.988;2023-04-24T01:16:24;14.70;1.00
20349;DHT22;10332;50.208;18.988;2023-04-24T01:18:52;14.70;1.00
20349;DHT22;10332;50.208;18.988;2023-04-24T01:21:21;14.70;1.00
20349;DHT22;10332;50.208;18.988;2023-04-24T01:23:48;14.70;99.90
20349;DHT22;10332;50.208;18.988;2023-04-24T01:26:17;14.70;99.90
20349;DHT22;10332;50.208;18.988;2023-04-24T01:28:48;14.70;99.90
20349;DHT22;10332;50.208;18.988;2023-04-24T01:31:15;14.70;99.90
20349;DHT22;10332;50.208;18.988;2023-04-24T01:33:43;14.70;99.90
20349;DHT22;10332;50.208;18.988;2023-04-24T01:36:11;14.70;99.90
20349;DHT22;10332;50.208;18.988;2023-04-24T01:38:38;14.60;99.90
20349;DHT22;10332;50.208;18.988;2023-04-24T01:41:06;14.60;99.90
20349;DHT22;10332;50.208;18.988;2023-04-24T01:43:33;14.60;99.90
20349;DHT22;10332;50.208;18.988;2023-04-24T01:46:01;14.60;99.90
20349;DHT22;10332;50.208;18.988;2023-04-24T01:48:29;14.60;99.90
20349;DHT22;10332;50.208;18.988;2023-04-24T01:50:57;14.60;99.90
20349;DHT22;10332;50.208;18.988;2023-04-24T01:53:25;14.50;99.90
20349;DHT22;10332;50.208;18.988;2023-04-24T01:55:52;14.60;99.90
20349;DHT22;10332;50.208;18.988;2023-04-24T01:58:20;14.50;99.90
20349;DHT22;10332;50.208;18.988;2023-04-24T02:00:48;14.50;99.90
20349;DHT22;10332;50.208;18.988;2023-04-24T02:03:15;14.50;99.90
20349;DHT22;10332;50.208;18.988;2023-04-24T02:05:46;14.50;99.90
20349;DHT22;10332;50.208;18.988;2023-04-24T02:08:13;14.50;99.90
20349;DHT22;10332;50.208;18.988;2023-04-24T02:10:41;14.40;99.90
20349;DHT22;10332;50.208;18.988;2023-04-24T02:13:08;14.40;99.90
20349;DHT22;10332;50.208;18.988;2023-04-24T02:15:36;14.40;99.90
20349;DHT22;10332;50.208;18.988;2023-04-24T02:18:03;14.30;99.90
20349;DHT22;10332;50.208;18.988;2023-04-24T02:20:31;14.40;99.90
20349;DHT22;10332;50.208;18.988;2023-04-24T02:23:01;14.30;99.90
20349;DHT22;10332;50.208;18.988;2023-04-24T02:25:28;14.30;99.90
20349;DHT22;10332;50.208;18.988;2023-04-24T02:27:56;14.30;99.90
20349;DHT22;10332;50.208;18.988;2023-04-24T02:30:23;14.30;99.90
20349;DHT22;10332;50.208;18.988;2023-04-24T02:32:51;14.20;99.90
20349;DHT22;10332;50.208;18.988;2023-04-24T02:35:19;14.20;99.90
20349;DHT22;10332;50.208;18.988;2023-04-24T02:37:46;14.10;99.90
20349;DHT22;10332;50.208;18.988;2023-04-24T02:40:14;14.20;99.90
20349;DHT22;10332;50.208;18.988;2023-04-24T02:42:42;14.10;99.90
20349;DHT22;10332;50.208;18.988;2023-04-24T02:45:10;14.10;99.90
20349;DHT22;10332;50.208;18.988;2023-04-24T02:47:37;14.10;99.90
20349;DHT22;10332;50.208;18.988;2023-04-24T02:50:05;14.10;99.90
20349;DHT22;10332;50.208;18.988;2023-04-24T02:52:33;14.10;99.90
20349;DHT22;10332;50.208;18.988;2023-04-24T02:55:01;14.10;99.90
20349;DHT22;10332;50.208;18.988;2023-04-24T02:57:29;14.10;99.90
20349;DHT22;10332;50.208;18.988;2023-04-24T02:59:57;14.10;99.90
20349;DHT22;10332;50.208;18.988;2023-04-24T03:02:24;14.20;99.90
20349;DHT22;10332;50.208;18.988;2023-04-24T03:04:52;14.10;99.90
20349;DHT22;10332;50.208;18.988;2023-04-24T03:07:19;14.10;99.90
20349;DHT22;10332;50.208;18.988;2023-04-24T03:09:48;14.20;99.90
20349;DHT22;10332;50.208;18.988;2023-04-24T03:12:16;14.20;99.90
20349;DHT22;10332;50.208;18.988;2023-04-24T03:14:48;14.20;99.90
20349;DHT22;10332;50.208;18.988;2023-04-24T03:17:18;14.30;99.90
20349;DHT22;10332;50.208;18.988;2023-04-24T03:19:46;14.30;99.90
20349;DHT22;10332;50.208;18.988;2023-04-24T03:22:13;14.30;99.90
20349;DHT22;10332;50.208;18.988;2023-04-24T03:24:40;14.30;99.90
20349;DHT22;10332;50.208;18.988;2023-04-24T03:27:08;14.30;99.90
20349;DHT22;10332;50.208;18.988;2023-04-24T03:29:35;14.30;99.90
20349;DHT22;10332;50.208;18.988;2023-04-24T03:32:02;14.40;99.90
20349;DHT22;10332;50.208;18.988;2023-04-24T03:34:30;14.40;99.90
20349;DHT22;10332;50.208;18.988;2023-04-24T03:36:57;14.40;99.90
20349;DHT22;10332;50.208;18.988;2023-04-24T03:39:25;14.40;99.90
20349;DHT22;10332;50.208;18.988;2023-04-24T03:41:52;14.40;99.90
20349;DHT22;10332;50.208;18.988;2023-04-24T03:44:20;14.40;99.90
20349;DHT22;10332;50.208;18.988;2023-04-24T03:46:47;14.50;99.90
20349;DHT22;10332;50.208;18.988;2023-04-24T03:49:14;14.50;99.90
20349;DHT22;10332;50.208;18.988;2023-04-24T03:51:42;14.60;99.90
20349;DHT22;10332;50.208;18.988;2023-04-24T03:54:09;14.50;99.90
20349;DHT22;10332;50.208;18.988;2023-04-24T03:56:37;14.60;99.90
20349;DHT22;10332;50.208;18.988;2023-04-24T03:59:04;14.60;99.90
20349;DHT22;10332;50.208;18.988;2023-04-24T04:01:32;14.70;99.90
20349;DHT22;10332;50.208;18.988;2023-04-24T04:04:04;14.70;99.90
20349;DHT22;10332;50.208;18.988;2023-04-24T04:06:32;14.70;99.90
20349;DHT22;10332;50.208;18.988;2023-04-24T04:08:59;14.80;99.90
20349;DHT22;10332;50.208;18.988;2023-04-24T04:11:27;14.80;99.90
20349;DHT22;10332;50.208;18.988;2023-04-24T04:13:55;14.80;99.90
20349;DHT22;10332;50.208;18.988;2023-04-24T04:16:23;14.90;99.90
20349;DHT22;10332;50.208;18.988;2023-04-24T04:18:51;15.00;99.90
20349;DHT22;10332;50.208;18.988;2023-04-24T04:21:18;15.10;99.90
20349;DHT22;10332;50.208;18.988;2023-04-24T04:23:46;15.10;99.90
20349;DHT22;10332;50.208;18.988;2023-04-24T04:26:13;15.10;99.90
20349;DHT22;10332;50.208;18.988;2023-04-24T04:28:41;15.10;99.90
20349;DHT22;10332;50.208;18.988;2023-04-24T04:31:08;15.20;99.90
20349;DHT22;10332;50.208;18.988;2023-04-24T04:33:36;15.20;99.90
20349;DHT22;10332;50.208;18.988;2023-04-24T04:36:05;15.30;99.90
20349;DHT22;10332;50.208;18.988;2023-04-24T04:38:32;15.40;99.90
20349;DHT22;10332;50.208;18.988;2023-04-24T04:41:00;15.50;99.90
20349;DHT22;10332;50.208;18.988;2023-04-24T04:43:28;15.60;99.90
20349;DHT22;10332;50.208;18.988;2023-04-24T04:45:55;15.70;99.90
20349;DHT22;10332;50.208;18.988;2023-04-24T04:48:23;15.80;99.90
20349;DHT22;10332;50.208;18.988;2023-04-24T04:50:50;15.90;99.90
20349;DHT22;10332;50.208;18.988;2023-04-24T04:53:18;16.00;99.90
20349;DHT22;10332;50.208;18.988;2023-04-24T04:55:45;16.10;99.90
20349;DHT22;10332;50.208;18.988;2023-04-24T04:58:13;16.10;99.90
20349;DHT22;10332;50.208;18.988;2023-04-24T05:00:41;16.20;99.90
20349;DHT22;10332;50.208;18.988;2023-04-24T05:03:09;16.20;99.90
20349;DHT22;10332;50.208;18.988;2023-04-24T05:05:47;16.30;99.90
20349;DHT22;10332;50.208;18.988;2023-04-24T05:08:14;16.30;99.90
20349;DHT22;10332;50.208;18.988;2023-04-24T05:10:53;16.40;99.90
20349;DHT22;10332;50.208;18.988;2023-04-24T05:13:21;16.40;99.90
20349;DHT22;10332;50.208;18.988;2023-04-24T05:16:05;16.50;99.90
20349;DHT22;10332;50.208;18.988;2023-04-24T05:18:33;16.60;99.90
20349;DHT22;10332;50.208;18.988;2023-04-24T05:21:01;16.60;99.90
20349;DHT22;10332;50.208;18.988;2023-04-24T05:23:28;16.70;99.90
20349;DHT22;10332;50.208;18.988;2023-04-24T05:25:56;16.60;99.90
20349;DHT22;10332;50.208;18.988;2023-04-24T05:28:23;16.50;99.90
20349;DHT22;10332;50.208;18.988;2023-04-24T05:30:55;16.50;99.90
20349;DHT22;10332;50.208;18.988;2023-04-24T05:33:23;16.50;99.90
20349;DHT22;10332;50.208;18.988;2023-04-24T05:35:50;16.40;99.90
20349;DHT22;10332;50.208;18.988;2023-04-24T05:38:18;16.40;99.90
20349;DHT22;10332;50.208;18.988;2023-04-24T05:40:46;16.40;99.90
20349;DHT22;10332;50.208;18.988;2023-04-24T05:43:14;16.30;99.90
20349;DHT22;10332;50.208;18.988;2023-04-24T05:45:41;16.30;99.90
20349;DHT22;10332;50.208;18.988;2023-04-24T05:48:09;16.40;99.90
20349;DHT22;10332;50.208;18.988;2023-04-24T05:50:36;16.40;99.90
20349;DHT22;10332;50.208;18.988;2023-04-24T05:53:04;16.50;99.90
20349;DHT22;10332;50.208;18.988;2023-04-24T05:55:33;16.50;99.90
20349;DHT22;10332;50.208;18.988;2023-04-24T05:58:01;16.50;99.90
20349;DHT22;10332;50.208;18.988;2023-04-24T06:00:28;16.50;99.90
20349;DHT22;10332;50.208;18.988;2023-04-24T06:02:56;16.60;99.90
20349;DHT22;10332;50.208;18.988;2023-04-24T06:05:24;16.60;99.90
20349;DHT22;10332;50.208;18.988;2023-04-24T06:07:52;16.60;99.90
20349;DHT22;10332;50.208;18.988;2023-04-24T06:10:19;16.60;99.90
20349;DHT22;10332;50.208;18.988;2023-04-24T06:12:47;16.60;99.90
20349;DHT22;10332;50.208;18.988;2023-04-24T06:15:14;16.60;99.90
20349;DHT22;10332;50.208;18.988;2023-04-24T06:17:42;16.70;99.90
20349;DHT22;10332;50.208;18.988;2023-04-24T06:20:09;16.70;99.90
20349;DHT22;10332;50.208;18.988;2023-04-24T06:22:38;16.70;99.90
20349;DHT22;10332;50.208;18.988;2023-04-24T06:25:07;16.80;99.90
20349;DHT22;10332;50.208;18.988;2023-04-24T06:27:34;16.90;99.90
20349;DHT22;10332;50.208;18.988;2023-04-24T06:30:02;17.00;99.90
20349;DHT22;10332;50.208;18.988;2023-04-24T06:32:30;17.10;99.90
20349;DHT22;10332;50.208;18.988;2023-04-24T06:34:58;17.20;99.90
20349;DHT22;10332;50.208;18.988;2023-04-24T06:37:25;17.40;99.90
20349;DHT22;10332;50.208;18.988;2023-04-24T06:39:53;17.70;99.90
20349;DHT22;10332;50.208;18.988;2023-04-24T06:42:20;18.20;99.90
20349;DHT22;10332;50.208;18.988;2023-04-24T06:44:48;18.50;99.90
20349;DHT22;10332;50.208;18.988;2023-04-24T06:47:16;18.80;99.90
20349;DHT22;10332;50.208;18.988;2023-04-24T06:49:43;19.20;99.90
20349;DHT22;10332;50.208;18.988;2023-04-24T06:52:12;19.60;99.90
20349;DHT22;10332;50.208;18.988;2023-04-24T06:54:41;20.00;99.90
20349;DHT22;10332;50.208;18.988;2023-04-24T06:57:08;20.20;99.90
20349;DHT22;10332;50.208;18.988;2023-04-24T06:59:37;20.30;99.90
20349;DHT22;10332;50.208;18.988;2023-04-24T07:02:05;20.40;99.90
20349;DHT22;10332;50.208;18.988;2023-04-24T07:04:33;20.30;99.90
20349;DHT22;10332;50.208;18.988;2023-04-24T07:07:02;20.20;99.90
20349;DHT22;10332;50.208;18.988;2023-04-24T07:09:29;20.20;99.90
20349;DHT22;10332;50.208;18.988;2023-04-24T07:11:57;20.10;99.90
20349;DHT22;10332;50.208;18.988;2023-04-24T07:14:24;20.00;99.90
20349;DHT22;10332;50.208;18.988;2023-04-24T07:16:52;20.10;99.90
20349;DHT22;10332;50.208;18.988;2023-04-24T07:19:19;20.10;99.90
20349;DHT22;10332;50.208;18.988;2023-04-24T07:21:47;20.10;99.90
20349;DHT22;10332;50.208;18.988;2023-04-24T07:24:14;20.00;99.90
20349;DHT22;10332;50.208;18.988;2023-04-24T07:26:42;20.10;99.90
20349;DHT22;10332;50.208;18.988;2023-04-24T07:29:10;20.30;99.90
20349;DHT22;10332;50.208;18.988;2023-04-24T07:31:37;20.40;99.90
20349;DHT22;10332;50.208;18.988;2023-04-24T07:34:05;20.50;99.90
20349;DHT22;10332;50.208;18.988;2023-04-24T07:36:33;20.60;99.90
20349;DHT22;10332;50.208;18.988;2023-04-24T07:39:00;20.80;99.90
20349;DHT22;10332;50.208;18.988;2023-04-24T07:41:27;20.80;99.90
20349;DHT22;10332;50.208;18.988;2023-04-24T07:43:55;20.80;99.90
20349;DHT22;10332;50.208;18.988;2023-04-24T07:46:22;20.90;99.90
20349;DHT22;10332;50.208;18.988;2023-04-24T07:48:50;21.10;99.90
20349;DHT22;10332;50.208;18.988;2023-04-24T07:51:35;21.40;99.90
20349;DHT22;10332;50.208;18.988;2023-04-24T07:54:05;22.00;99.90
20349;DHT22;10332;50.208;18.988;2023-04-24T07:56:33;22.50;99.90
20349;DHT22;10332;50.208;18.988;2023-04-24T07:59:01;22.90;99.90
20349;DHT22;10332;50.208;18.988;2023-04-24T08:01:29;23.40;99.90
20349;DHT22;10332;50.208;18.988;2023-04-24T08:03:56;23.70;99.90
20349;DHT22;10332;50.208;18.988;2023-04-24T08:06:24;23.80;98.90
20349;DHT22;10332;50.208;18.988;2023-04-24T08:08:54;23.90;84.20
20349;DHT22;10332;50.208;18.988;2023-04-24T08:11:22;24.00;82.80
20349;DHT22;10332;50.208;18.988;2023-04-24T08:13:50;23.90;78.50
20349;DHT22;10332;50.208;18.988;2023-04-24T08:16:18;23.80;76.10
20349;DHT22;10332;50.208;18.988;2023-04-24T08:18:45;24.00;78.40
20349;DHT22;10332;50.208;18.988;2023-04-24T08:21:13;24.00;71.10
20349;DHT22;10332;50.208;18.988;2023-04-24T08:23:45;23.80;66.80
20349;DHT22;10332;50.208;18.988;2023-04-24T08:26:13;24.00;64.40
20349;DHT22;10332;50.208;18.988;2023-04-24T08:28:40;24.10;63.40
20349;DHT22;10332;50.208;18.988;2023-04-24T08:31:09;24.30;64.80
20349;DHT22;10332;50.208;18.988;2023-04-24T08:33:37;24.50;57.60
20349;DHT22;10332;50.208;18.988;2023-04-24T08:36:05;24.70;54.90
20349;DHT22;10332;50.208;18.988;2023-04-24T08:38:33;24.80;50.60
20349;DHT22;10332;50.208;18.988;2023-04-24T08:41:01;24.90;46.40
20349;DHT22;10332;50.208;18.988;2023-04-24T08:43:28;25.00;42.70
20349;DHT22;10332;50.208;18.988;2023-04-24T08:45:57;25.10;39.40
20349;DHT22;10332;50.208;18.988;2023-04-24T08:48:26;25.50;40.40
20349;DHT22;10332;50.208;18.988;2023-04-24T08:50:59;26.00;39.90
20349;DHT22;10332;50.208;18.988;2023-04-24T08:53:26;26.20;30.50
20349;DHT22;10332;50.208;18.988;2023-04-24T08:55:55;26.60;29.00
20349;DHT22;10332;50.208;18.988;2023-04-24T08:58:27;26.70;24.30
20349;DHT22;10332;50.208;18.988;2023-04-24T09:00:56;27.00;23.30
20349;DHT22;10332;50.208;18.988;2023-04-24T09:03:24;27.30;23.00
20349;DHT22;10332;50.208;18.988;2023-04-24T09:05:55;27.70;21.50
20349;DHT22;10332;50.208;18.988;2023-04-24T09:08:25;27.90;18.60
20349;DHT22;10332;50.208;18.988;2023-04-24T09:10:53;27.50;14.30
20349;DHT22;10332;50.208;18.988;2023-04-24T09:13:21;26.80;14.30
20349;DHT22;10332;50.208;18.988;2023-04-24T09:15:48;26.70;15.40
20349;DHT22;10332;50.208;18.988;2023-04-24T09:18:17;27.20;13.80
20349;DHT22;10332;50.208;18.988;2023-04-24T09:20:58;28.30;12.70
20349;DHT22;10332;50.208;18.988;2023-04-24T09:23:31;29.50;6.10
20349;DHT22;10332;50.208;18.988;2023-04-24T09:26:00;30.20;1.40
20349;DHT22;10332;50.208;18.988;2023-04-24T09:28:39;31.30;1.00
20349;DHT22;10332;50.208;18.988;2023-04-24T09:31:17;32.60;1.00
20349;DHT22;10332;50.208;18.988;2023-04-24T09:36:45;35.10;1.00
20349;DHT22;10332;50.208;18.988;2023-04-24T09:39:31;35.60;1.00
20349;DHT22;10332;50.208;18.988;2023-04-24T09:42:01;35.50;1.00
20349;DHT22;10332;50.208;18.988;2023-04-24T09:44:37;35.40;1.00
20349;DHT22;10332;50.208;18.988;2023-04-24T09:47:08;35.60;1.00
20349;DHT22;10332;50.208;18.988;2023-04-24T09:49:36;35.50;1.00
20349;DHT22;10332;50.208;18.988;2023-04-24T09:52:08;35.40;1.00
20349;DHT22;10332;50.208;18.988;2023-04-24T09:54:38;35.80;1.00
20349;DHT22;10332;50.208;18.988;2023-04-24T09:57:09;35.80;1.00
20349;DHT22;10332;50.208;18.988;2023-04-24T09:59:42;36.10;1.00
20349;DHT22;10332;50.208;18.988;2023-04-24T10:02:19;36.30;1.00
20349;DHT22;10332;50.208;18.988;2023-04-24T10:04:57;36.20;1.00
20349;DHT22;10332;50.208;18.988;2023-04-24T10:07:27;35.70;1.00
20349;DHT22;10332;50.208;18.988;2023-04-24T10:09:55;35.70;1.00
20349;DHT22;10332;50.208;18.988;2023-04-24T10:12:23;35.60;1.00
20349;DHT22;10332;50.208;18.988;2023-04-24T10:14:52;35.80;1.00
20349;DHT22;10332;50.208;18.988;2023-04-24T10:17:21;38.10;1.00
20349;DHT22;10332;50.208;18.988;2023-04-24T10:19:51;38.00;1.00
20349;DHT22;10332;50.208;18.988;2023-04-24T10:22:19;38.40;1.00
20349;DHT22;10332;50.208;18.988;2023-04-24T10:24:49;39.30;1.00
20349;DHT22;10332;50.208;18.988;2023-04-24T10:27:20;38.50;1.00
20349;DHT22;10332;50.208;18.988;2023-04-24T10:29:50;37.10;1.00
20349;DHT22;10332;50.208;18.988;2023-04-24T10:32:20;36.30;1.00
20349;DHT22;10332;50.208;18.988;2023-04-24T10:34:48;33.30;1.00
20349;DHT22;10332;50.208;18.988;2023-04-24T10:37:16;30.80;1.00
20349;DHT22;10332;50.208;18.988;2023-04-24T10:39:47;29.20;1.00
20349;DHT22;10332;50.208;18.988;2023-04-24T10:42:16;27.70;1.00
20349;DHT22;10332;50.208;18.988;2023-04-24T10:44:47;26.60;1.00
20349;DHT22;10332;50.208;18.988;2023-04-24T10:47:16;25.20;1.00
20349;DHT22;10332;50.208;18.988;2023-04-24T10:49:44;24.60;1.00
20349;DHT22;10332;50.208;18.988;2023-04-24T10:52:14;24.10;1.00
20349;DHT22;10332;50.208;18.988;2023-04-24T10:54:44;23.30;1.00
20349;DHT22;10332;50.208;18.988;2023-04-24T10:59:47;22.60;1.00
20349;DHT22;10332;50.208;18.988;2023-04-24T11:02:17;22.30;1.00
20349;DHT22;10332;50.208;18.988;2023-04-24T11:04:45;21.80;2.10
20349;DHT22;10332;50.208;18.988;2023-04-24T11:07:20;21.30;5.00
20349;DHT22;10332;50.208;18.988;2023-04-24T11:10:00;20.60;10.20
20349;DHT22;10332;50.208;18.988;2023-04-24T11:12:28;20.50;15.50
20349;DHT22;10332;50.208;18.988;2023-04-24T11:22:53;20.20;23.70
20349;DHT22;10332;50.208;18.988;2023-04-24T11:25:22;20.10;34.20
20349;DHT22;10332;50.208;18.988;2023-04-24T11:27:50;20.10;36.20
20349;DHT22;10332;50.208;18.988;2023-04-24T11:30:31;20.10;38.10
20349;DHT22;10332;50.208;18.988;2023-04-24T11:33:04;19.90;41.00
20349;DHT22;10332;50.208;18.988;2023-04-24T11:35:39;19.80;43.50
20349;DHT22;10332;50.208;18.988;2023-04-24T11:38:07;20.20;46.20
20349;DHT22;10332;50.208;18.988;2023-04-24T11:40:40;20.30;46.00
20349;DHT22;10332;50.208;18.988;2023-04-24T11:43:09;20.40;45.00
20349;DHT22;10332;50.208;18.988;2023-04-24T11:45:37;20.40;45.90
20349;DHT22;10332;50.208;18.988;2023-04-24T11:48:05;20.60;45.60
20349;DHT22;10332;50.208;18.988;2023-04-24T11:50:33;20.60;45.00
20349;DHT22;10332;50.208;18.988;2023-04-24T11:53:01;20.50;46.30
20349;DHT22;10332;50.208;18.988;2023-04-24T11:55:29;20.40;48.30
20349;DHT22;10332;50.208;18.988;2023-04-24T11:57:58;20.40;49.90
20349;DHT22;10332;50.208;18.988;2023-04-24T12:00:29;20.40;52.40
20349;DHT22;10332;50.208;18.988;2023-04-24T12:03:09;20.40;53.30
20349;DHT22;10332;50.208;18.988;2023-04-24T12:05:39;20.40;58.20
20349;DHT22;10332;50.208;18.988;2023-04-24T12:08:07;20.40;62.40
20349;DHT22;10332;50.208;18.988;2023-04-24T12:10:35;20.00;71.00
20349;DHT22;10332;50.208;18.988;2023-04-24T12:13:03;20.00;76.90
20349;DHT22;10332;50.208;18.988;2023-04-24T12:15:30;19.90;82.80
20349;DHT22;10332;50.208;18.988;2023-04-24T12:17:59;20.00;88.70
20349;DHT22;10332;50.208;18.988;2023-04-24T12:20:29;19.90;90.50
20349;DHT22;10332;50.208;18.988;2023-04-24T12:23:00;20.00;90.40
20349;DHT22;10332;50.208;18.988;2023-04-24T12:25:30;20.10;91.40
20349;DHT22;10332;50.208;18.988;2023-04-24T12:30:32;20.10;92.60
20349;DHT22;10332;50.208;18.988;2023-04-24T12:33:02;20.10;93.30
20349;DHT22;10332;50.208;18.988;2023-04-24T12:35:32;19.80;96.00
20349;DHT22;10332;50.208;18.988;2023-04-24T12:38:08;19.60;99.00
20349;DHT22;10332;50.208;18.988;2023-04-24T12:40:37;19.60;99.90
20349;DHT22;10332;50.208;18.988;2023-04-24T12:43:18;19.80;99.90
20349;DHT22;10332;50.208;18.988;2023-04-24T12:45:49;19.70;99.90
20349;DHT22;10332;50.208;18.988;2023-04-24T12:48:17;19.70;99.90
20349;DHT22;10332;50.208;18.988;2023-04-24T12:50:44;19.50;99.90
20349;DHT22;10332;50.208;18.988;2023-04-24T12:53:13;19.40;99.90
20349;DHT22;10332;50.208;18.988;2023-04-24T12:55:43;19.20;99.90
20349;DHT22;10332;50.208;18.988;2023-04-24T12:58:11;19.00;99.90
20349;DHT22;10332;50.208;18.988;2023-04-24T13:00:40;18.80;99.90
20349;DHT22;10332;50.208;18.988;2023-04-24T13:03:10;18.70;99.90
20349;DHT22;10332;50.208;18.988;2023-04-24T13:05:39;18.70;99.90
20349;DHT22;10332;50.208;18.988;2023-04-24T13:08:07;18.90;99.90
20349;DHT22;10332;50.208;18.988;2023-04-24T13:10:34;18.60;99.90
20349;DHT22;10332;50.208;18.988;2023-04-24T13:13:02;18.50;99.90
20349;DHT22;10332;50.208;18.988;2023-04-24T13:15:30;18.50;99.90
20349;DHT22;10332;50.208;18.988;2023-04-24T13:17:57;18.10;99.90
20349;DHT22;10332;50.208;18.988;2023-04-24T13:20:25;18.10;99.90
20349;DHT22;10332;50.208;18.988;2023-04-24T13:22:53;18.10;99.90
20349;DHT22;10332;50.208;18.988;2023-04-24T13:25:20;18.00;99.90
20349;DHT22;10332;50.208;18.988;2023-04-24T13:27:49;17.80;99.90
20349;DHT22;10332;50.208;18.988;2023-04-24T13:30:18;17.90;99.90
20349;DHT22;10332;50.208;18.988;2023-04-24T13:32:45;17.90;1.00
20349;DHT22;10332;50.208;18.988;2023-04-24T13:35:13;17.70;1.00
20349;DHT22;10332;50.208;18.988;2023-04-24T13:37:40;17.80;1.00
20349;DHT22;10332;50.208;18.988;2023-04-24T13:40:08;17.70;1.00
20349;DHT22;10332;50.208;18.988;2023-04-24T13:42:36;17.70;1.00
20349;DHT22;10332;50.208;18.988;2023-04-24T13:45:04;17.50;1.00
20349;DHT22;10332;50.208;18.988;2023-04-24T13:47:50;17.30;1.00
20349;DHT22;10332;50.208;18.988;2023-04-24T13:50:19;17.00;1.00
20349;DHT22;10332;50.208;18.988;2023-04-24T13:52:47;16.90;99.90
20349;DHT22;10332;50.208;18.988;2023-04-24T13:55:15;17.00;99.90
20349;DHT22;10332;50.208;18.988;2023-04-24T13:57:42;16.80;99.90
20349;DHT22;10332;50.208;18.988;2023-04-24T14:00:10;16.60;1.00
20349;DHT22;10332;50.208;18.988;2023-04-24T14:02:38;16.60;1.00
20349;DHT22;10332;50.208;18.988;2023-04-24T14:05:06;16.70;30.00
20349;DHT22;10332;50.208;18.988;2023-04-24T14:07:34;16.30;1.00
20349;DHT22;10332;50.208;18.988;2023-04-24T14:10:02;16.20;99.90
20349;DHT22;10332;50.208;18.988;2023-04-24T14:12:29;16.20;99.90
20349;DHT22;10332;50.208;18.988;2023-04-24T14:14:57;16.40;99.90
20349;DHT22;10332;50.208;18.988;2023-04-24T14:17:24;16.60;69.90
20349;DHT22;10332;50.208;18.988;2023-04-24T14:19:52;16.60;99.90
20349;DHT22;10332;50.208;18.988;2023-04-24T14:22:23;16.50;61.50
20349;DHT22;10332;50.208;18.988;2023-04-24T14:24:50;16.40;99.00
20349;DHT22;10332;50.208;18.988;2023-04-24T14:27:18;16.50;56.00
20349;DHT22;10332;50.208;18.988;2023-04-24T14:29:45;16.60;1.00
20349;DHT22;10332;50.208;18.988;2023-04-24T14:32:12;16.70;99.90
20349;DHT22;10332;50.208;18.988;2023-04-24T14:34:42;16.70;99.90
20349;DHT22;10332;50.208;18.988;2023-04-24T14:37:09;16.60;99.90
20349;DHT22;10332;50.208;18.988;2023-04-24T14:39:37;16.50;99.90
20349;DHT22;10332;50.208;18.988;2023-04-24T14:42:04;16.50;1.00
20349;DHT22;10332;50.208;18.988;2023-04-24T14:44:32;16.60;1.00
20349;DHT22;10332;50.208;18.988;2023-04-24T14:47:00;16.70;1.00
20349;DHT22;10332;50.208;18.988;2023-04-24T14:49:27;16.60;1.00
20349;DHT22;10332;50.208;18.988;2023-04-24T14:51:54;16.70;1.00
20349;DHT22;10332;50.208;18.988;2023-04-24T14:54:22;16.70;1.00
20349;DHT22;10332;50.208;18.988;2023-04-24T14:56:50;16.60;1.00
20349;DHT22;10332;50.208;18.988;2023-04-24T14:59:18;16.70;1.00
20349;DHT22;10332;50.208;18.988;2023-04-24T15:01:45;16.70;32.20
20349;DHT22;10332;50.208;18.988;2023-04-24T15:04:13;16.90;1.00
20349;DHT22;10332;50.208;18.988;2023-04-24T15:06:41;16.90;1.00
20349;DHT22;10332;50.208;18.988;2023-04-24T15:09:09;16.90;1.00
20349;DHT22;10332;50.208;18.988;2023-04-24T15:11:36;16.70;81.20
20349;DHT22;10332;50.208;18.988;2023-04-24T15:14:04;16.70;99.90
20349;DHT22;10332;50.208;18.988;2023-04-24T15:16:32;16.70;99.90
20349;DHT22;10332;50.208;18.988;2023-04-24T15:18:59;16.70;99.90
20349;DHT22;10332;50.208;18.988;2023-04-24T15:21:27;16.80;99.90
20349;DHT22;10332;50.208;18.988;2023-04-24T15:23:55;16.80;99.90
20349;DHT22;10332;50.208;18.988;2023-04-24T15:26:23;16.80;99.90
20349;DHT22;10332;50.208;18.988;2023-04-24T15:28:52;16.60;1.00
20349;DHT22;10332;50.208;18.988;2023-04-24T15:31:19;16.80;99.90
20349;DHT22;10332;50.208;18.988;2023-04-24T15:33:47;17.00;99.90
20349;DHT22;10332;50.208;18.988;2023-04-24T15:36:17;17.10;99.90
20349;DHT22;10332;50.208;18.988;2023-04-24T15:38:45;17.20;1.00
20349;DHT22;10332;50.208;18.988;2023-04-24T15:41:12;17.10;1.00
20349;DHT22;10332;50.208;18.988;2023-04-24T15:43:40;16.80;1.00
20349;DHT22;10332;50.208;18.988;2023-04-24T15:46:09;16.80;32.30